Time;durP1;ratioP1;P1;durP2;ratioP2;P2;SDS_P1;SDS_P2;PMS_P1;PMS_P2;Temp;Humidity;BMP_temperature;BMP_pressure;BME280_temperature;BME280_humidity;BME280_pressure;Samples;Min_cycle;Max_cycle;Signal;HPM_P1;HPM_P2
2021/09/29 00:02:10;;;;;;;7.17;5.87;;;;;;;17.56;56.50;96852.16;5098996;28;20273;-69
2021/09/29 00:04:36;;;;;;;10.23;6.00;;;;;;;17.54;56.82;96847.06;5097823;28;20205;-67
2021/09/29 00:07:02;;;;;;;8.53;5.83;;;;;;;17.51;57.03;96852.78;5099014;28;20264;-69
2021/09/29 00:09:27;;;;;;;7.63;5.70;;;;;;;17.44;57.45;96857.25;5099335;28;20181;-70
2021/09/29 00:11:53;;;;;;;8.37;6.30;;;;;;;17.47;57.68;96862.16;5099193;28;20596;-69
2021/09/29 00:14:18;;;;;;;9.67;6.50;;;;;;;17.48;57.64;96853.19;5098497;28;20300;-70
2021/09/29 00:16:44;;;;;;;6.80;5.93;;;;;;;17.47;57.87;96846.25;5100151;28;20200;-68
2021/09/29 00:19:09;;;;;;;8.50;6.30;;;;;;;17.43;57.89;96843.22;5112893;28;20206;-68
2021/09/29 00:21:35;;;;;;;7.83;5.90;;;;;;;17.33;58.14;96848.91;5115556;28;20271;-68
2021/09/29 00:24:01;;;;;;;19.93;6.93;;;;;;;17.35;58.16;96851.34;5102167;28;20197;-68
2021/09/29 00:26:26;;;;;;;9.67;6.13;;;;;;;17.38;58.04;96848.31;5098899;28;20230;-68
2021/09/29 00:28:52;;;;;;;8.23;6.50;;;;;;;17.41;58.15;96850.53;5099440;28;20272;-68
2021/09/29 00:34:06;;;;;;;7.33;6.30;;;;;;;17.33;57.58;96854.22;5109785;28;20213;-69
2021/09/29 00:36:34;;;;;;;6.93;6.20;;;;;;;17.29;57.57;96855.63;5115053;28;20431;-68
2021/09/29 00:39:00;;;;;;;7.83;6.60;;;;;;;17.24;57.73;96847.50;5115226;28;20411;-69
2021/09/29 00:41:26;;;;;;;6.67;6.03;;;;;;;17.18;57.64;96848.28;5105062;28;20424;-70
2021/09/29 00:43:51;;;;;;;8.00;6.30;;;;;;;17.11;57.82;96845.66;5099356;28;20447;-69
2021/09/29 00:46:17;;;;;;;8.77;6.30;;;;;;;17.13;57.80;96845.47;5099958;28;20217;-69
2021/09/29 00:48:42;;;;;;;7.53;5.90;;;;;;;17.03;58.36;96843.19;5100223;28;20189;-69
2021/09/29 00:51:10;;;;;;;8.10;6.40;;;;;;;17.00;58.25;96849.72;5099611;28;20209;-69
2021/09/29 00:53:37;;;;;;;7.13;6.43;;;;;;;16.80;58.77;96844.38;5082327;28;20614;-69
2021/09/29 00:56:04;;;;;;;13.40;7.30;;;;;;;16.71;58.99;96841.09;5100347;28;20427;-69
2021/09/29 00:58:29;;;;;;;8.10;6.93;;;;;;;16.76;59.03;96839.69;5098229;28;20982;-69
2021/09/29 01:00:55;;;;;;;16.30;6.83;;;;;;;16.72;59.08;96828.66;5094505;28;20443;-68
2021/09/29 01:03:22;;;;;;;8.90;6.13;;;;;;;16.71;59.26;96830.50;5097975;28;20208;-70
2021/09/29 01:05:50;;;;;;;11.60;6.90;;;;;;;16.67;59.38;96833.75;5081418;28;20248;-69
2021/09/29 01:08:25;;;;;;;7.43;6.63;;;;;;;16.65;59.23;96830.50;5096060;28;20431;-69
2021/09/29 01:11:04;;;;;;;10.70;6.97;;;;;;;16.56;59.44;96833.31;5091513;28;20430;-69
2021/09/29 01:13:55;;;;;;;7.23;6.60;;;;;;;16.52;59.52;96833.91;5092500;28;20459;-69
2021/09/29 01:16:21;;;;;;;13.93;7.20;;;;;;;16.50;59.80;96835.94;5092763;28;20428;-69
2021/09/29 01:18:56;;;;;;;10.47;6.97;;;;;;;16.51;59.55;96835.75;5092225;28;20466;-69
2021/09/29 01:21:22;;;;;;;10.10;7.40;;;;;;;16.65;59.40;96835.78;5091676;28;20913;-68
2021/09/29 01:24:10;;;;;;;11.70;6.90;;;;;;;16.69;59.16;96827.25;5092362;28;20814;-69
2021/09/29 01:26:38;;;;;;;8.23;6.90;;;;;;;16.74;59.02;96827.47;5092695;28;20423;-68
2021/09/29 01:29:09;;;;;;;7.70;6.37;;;;;;;16.74;58.79;96835.41;5090741;28;20423;-69
2021/09/29 01:31:35;;;;;;;7.63;6.67;;;;;;;16.62;59.11;96838.81;5089056;28;20416;-69
2021/09/29 01:34:03;;;;;;;7.70;6.20;;;;;;;16.67;59.06;96826.63;5092268;28;20829;-69
2021/09/29 01:36:28;;;;;;;13.17;6.50;;;;;;;16.66;59.02;96827.63;5093222;28;20436;-69
2021/09/29 01:38:57;;;;;;;8.57;6.60;;;;;;;16.70;59.27;96830.69;5091345;28;20447;-68
2021/09/29 01:41:25;;;;;;;7.80;6.53;;;;;;;16.74;59.06;96834.56;5093777;28;20269;-69
2021/09/29 01:43:52;;;;;;;10.27;7.53;;;;;;;16.35;60.31;96825.50;5092927;28;20436;-68
2021/09/29 01:46:18;;;;;;;8.17;7.40;;;;;;;16.40;60.28;96826.53;5095501;28;20507;-69
2021/09/29 01:49:12;;;;;;;10.93;7.60;;;;;;;16.31;60.46;96835.66;5091512;28;20502;-69
2021/09/29 01:51:40;;;;;;;10.77;7.00;;;;;;;16.42;60.16;96827.16;5092225;28;20548;-69
2021/09/29 01:54:07;;;;;;;10.87;7.57;;;;;;;16.57;59.64;96829.63;5091893;28;20885;-69
2021/09/29 01:56:33;;;;;;;12.83;7.00;;;;;;;16.55;59.57;96815.00;5092774;28;20424;-69
2021/09/29 01:58:58;;;;;;;7.67;6.87;;;;;;;16.56;59.78;96819.28;5091119;28;20446;-68
2021/09/29 02:01:25;;;;;;;9.40;6.37;;;;;;;16.57;59.70;96827.00;5088548;28;20484;-69
2021/09/29 02:03:51;;;;;;;9.47;7.20;;;;;;;16.52;59.86;96815.38;5091831;28;20206;-69
2021/09/29 02:06:16;;;;;;;9.90;6.50;;;;;;;16.55;59.61;96822.94;5092652;28;20431;-69
2021/09/29 02:08:42;;;;;;;10.33;6.10;;;;;;;16.43;59.76;96823.50;5092229;28;20648;-69
2021/09/29 02:11:08;;;;;;;8.13;6.87;;;;;;;15.94;61.60;96824.53;5092983;28;20185;-70
2021/09/29 02:13:33;;;;;;;7.50;6.50;;;;;;;15.54;62.72;96834.81;5092336;28;20205;-69
2021/09/29 02:15:59;;;;;;;11.10;7.10;;;;;;;15.90;61.58;96828.56;5091968;28;20201;-69
2021/09/29 02:18:25;;;;;;;10.40;6.30;;;;;;;16.09;60.74;96830.50;5093289;28;20633;-69
2021/09/29 02:20:52;;;;;;;8.37;6.60;;;;;;;16.17;60.47;96823.41;5093091;28;20284;-68
2021/09/29 02:23:20;;;;;;;7.37;6.60;;;;;;;16.02;60.82;96839.41;5092243;28;20838;-69
2021/09/29 02:25:46;;;;;;;8.27;7.03;;;;;;;15.88;61.53;96844.63;5091219;28;20424;-69
2021/09/29 02:28:11;;;;;;;11.53;6.60;;;;;;;15.43;62.93;96833.56;5092687;28;20492;-69
2021/09/29 02:30:37;;;;;;;8.33;6.40;;;;;;;15.93;61.33;96836.13;5087801;28;20428;-68
2021/09/29 02:33:03;;;;;;;11.20;6.90;;;;;;;16.05;60.69;96836.38;5092299;28;20186;-68
2021/09/29 02:35:28;;;;;;;8.07;7.20;;;;;;;15.10;63.53;96840.19;5091255;28;20213;-69
2021/09/29 02:37:54;;;;;;;8.13;6.37;;;;;;;14.94;64.31;96845.72;5092022;28;20264;-69
2021/09/29 02:40:20;;;;;;;8.60;6.37;;;;;;;15.27;63.48;96850.47;5091059;28;20190;-69
2021/09/29 02:42:46;;;;;;;9.50;6.90;;;;;;;15.66;61.88;96843.84;5089898;28;20210;-68
2021/09/29 02:45:11;;;;;;;11.53;6.90;;;;;;;15.46;62.24;96843.72;5092413;28;20531;-68
2021/09/29 02:47:37;;;;;;;9.27;6.73;;;;;;;15.44;62.59;96851.00;5092258;28;20174;-68
2021/09/29 02:50:04;;;;;;;7.90;6.80;;;;;;;15.49;62.28;96854.72;5092593;28;20595;-69
2021/09/29 02:52:30;;;;;;;11.40;7.00;;;;;;;15.29;63.07;96854.56;5092038;28;20193;-69
2021/09/29 02:54:55;;;;;;;11.23;7.43;;;;;;;15.27;63.14;96861.03;5092428;28;20512;-69
2021/09/29 02:57:21;;;;;;;9.43;6.57;;;;;;;15.23;63.28;96859.78;5093436;28;20194;-66
2021/09/29 02:59:47;;;;;;;10.77;7.43;;;;;;;14.93;64.63;96865.19;5087645;28;20660;-66
2021/09/29 03:02:13;;;;;;;8.03;6.80;;;;;;;15.02;64.38;96866.69;5091112;28;20426;-67
2021/09/29 03:04:39;;;;;;;12.00;7.33;;;;;;;14.85;64.63;96859.06;5092526;28;20496;-66
2021/09/29 03:07:04;;;;;;;8.37;7.47;;;;;;;14.77;65.27;96867.06;5091008;28;20599;-66
2021/09/29 03:09:30;;;;;;;7.97;7.17;;;;;;;14.72;65.67;96862.38;5089163;28;20664;-67
2021/09/29 03:11:55;;;;;;;9.73;7.63;;;;;;;14.10;67.86;96875.00;5091263;28;20185;-68
2021/09/29 03:14:21;;;;;;;10.27;7.87;;;;;;;14.24;67.47;96872.53;5089305;28;20258;-66
2021/09/29 03:16:46;;;;;;;12.10;8.10;;;;;;;14.34;67.50;96874.88;5088286;28;20232;-64
2021/09/29 03:19:13;;;;;;;13.13;8.20;;;;;;;14.17;68.39;96879.53;5081310;28;20180;-66
2021/09/29 03:21:38;;;;;;;12.60;8.80;;;;;;;14.30;68.12;96882.34;5091239;28;20192;-67
2021/09/29 03:24:04;;;;;;;10.73;7.60;;;;;;;14.24;68.09;96868.06;5090953;28;20440;-66
2021/09/29 03:26:29;;;;;;;9.63;8.63;;;;;;;14.48;67.52;96874.06;5091692;28;20182;-66
2021/09/29 03:28:55;;;;;;;13.53;8.13;;;;;;;14.67;67.17;96872.66;5089907;28;20190;-67
2021/09/29 03:31:21;;;;;;;11.17;8.30;;;;;;;14.46;68.24;96873.41;5091201;28;20193;-67
2021/09/29 03:33:46;;;;;;;10.90;8.37;;;;;;;14.56;67.39;96887.13;5090747;28;20201;-66
2021/09/29 03:36:12;;;;;;;9.23;7.90;;;;;;;14.77;66.63;96884.72;5090696;28;20562;-65
2021/09/29 03:38:38;;;;;;;16.60;8.63;;;;;;;14.80;66.36;96876.44;5090323;28;20177;-67
2021/09/29 03:41:03;;;;;;;12.63;8.40;;;;;;;14.79;66.67;96878.25;5091327;28;20182;-67
2021/09/29 03:43:29;;;;;;;10.07;8.30;;;;;;;14.76;67.04;96886.53;5091295;28;20311;-66
2021/09/29 03:45:54;;;;;;;13.63;8.43;;;;;;;14.62;67.70;96893.47;5090214;28;20192;-67
2021/09/29 03:48:20;;;;;;;9.23;7.03;;;;;;;14.73;67.18;96893.00;5090725;28;20659;-67
2021/09/29 03:50:45;;;;;;;12.60;8.27;;;;;;;14.98;66.49;96894.50;5088869;28;20182;-68
2021/09/29 03:53:11;;;;;;;10.97;7.50;;;;;;;14.90;66.75;96900.69;5090680;28;20194;-65
2021/09/29 03:55:37;;;;;;;9.23;7.87;;;;;;;14.68;67.30;96905.13;5091110;28;20681;-65
2021/09/29 03:58:02;;;;;;;13.13;7.00;;;;;;;14.98;66.27;96897.13;5089909;28;20193;-67
2021/09/29 04:00:28;;;;;;;11.00;7.17;;;;;;;14.76;67.14;96902.38;5090904;28;20193;-67
2021/09/29 04:02:54;;;;;;;22.30;9.27;;;;;;;15.09;65.76;96903.72;5090311;28;20273;-66
2021/09/29 04:05:20;;;;;;;8.73;6.70;;;;;;;14.65;67.21;96905.44;5090512;28;20280;-66
2021/09/29 04:07:45;;;;;;;7.63;6.87;;;;;;;15.05;65.83;96906.75;5090376;28;20249;-66
2021/09/29 04:10:11;;;;;;;19.07;7.73;;;;;;;15.07;65.76;96909.19;5090698;28;20730;-67
2021/09/29 04:12:39;;;;;;;13.87;6.77;;;;;;;15.01;66.25;96910.75;5091082;28;20178;-68
2021/09/29 04:15:06;;;;;;;9.53;6.97;;;;;;;15.23;65.39;96899.38;5090412;28;20692;-67
2021/09/29 04:17:31;;;;;;;9.30;6.20;;;;;;;15.35;64.76;96905.78;5089582;28;20914;-68
2021/09/29 04:19:57;;;;;;;9.07;7.20;;;;;;;14.87;66.27;96909.78;5088370;28;20419;-68
2021/09/29 04:22:22;;;;;;;8.67;6.53;;;;;;;14.56;67.77;96905.56;5090180;28;20893;-68
2021/09/29 04:24:48;;;;;;;7.57;6.30;;;;;;;14.75;67.17;96908.63;5088755;28;20628;-66
2021/09/29 04:27:14;;;;;;;8.67;6.67;;;;;;;14.69;67.01;96904.13;5082158;28;20170;-65
2021/09/29 04:29:40;;;;;;;9.13;6.20;;;;;;;14.46;68.28;96907.69;5090632;28;20593;-66
2021/09/29 04:32:07;;;;;;;9.23;6.07;;;;;;;14.85;66.83;96921.53;5090683;28;20419;-67
2021/09/29 04:34:33;;;;;;;7.67;6.20;;;;;;;14.65;67.69;96921.28;5089756;28;20245;-68
2021/09/29 04:36:58;;;;;;;11.30;6.33;;;;;;;14.73;67.07;96908.84;5090337;28;20463;-67
2021/09/29 04:39:24;;;;;;;7.43;5.60;;;;;;;14.88;66.78;96915.91;5090667;28;20192;-66
2021/09/29 04:41:49;;;;;;;11.70;6.20;;;;;;;14.69;67.53;96917.31;5090667;28;20618;-65
2021/09/29 04:44:15;;;;;;;7.33;5.30;;;;;;;14.61;67.50;96925.31;5089977;28;20213;-66
2021/09/29 04:46:41;;;;;;;8.50;6.00;;;;;;;14.80;67.07;96919.47;5093602;28;20317;-66
2021/09/29 04:49:06;;;;;;;12.30;5.80;;;;;;;14.69;67.73;96919.94;5092080;28;20186;-66
2021/09/29 04:51:33;;;;;;;8.30;5.17;;;;;;;14.84;66.89;96923.38;5094264;28;20669;-66
2021/09/29 04:53:58;;;;;;;9.43;5.33;;;;;;;14.97;66.67;96924.50;5093157;28;20206;-67
2021/09/29 04:56:24;;;;;;;9.90;5.77;;;;;;;14.61;67.81;96920.03;5094433;28;20427;-66
2021/09/29 04:58:50;;;;;;;6.90;4.80;;;;;;;14.37;68.65;96917.50;5094146;28;20185;-66
2021/09/29 05:01:19;;;;;;;9.90;4.90;;;;;;;14.69;67.58;96927.84;5092491;28;20178;-67
2021/09/29 05:03:45;;;;;;;6.30;4.97;;;;;;;14.69;67.11;96920.75;5093986;28;20198;-66
2021/09/29 05:06:10;;;;;;;10.70;5.77;;;;;;;14.66;67.99;96933.47;5093006;28;20476;-65
2021/09/29 05:08:37;;;;;;;6.20;5.17;;;;;;;14.44;68.50;96928.94;5087890;28;20182;-67
2021/09/29 05:11:05;;;;;;;10.20;5.27;;;;;;;14.71;67.34;96937.22;5092810;28;20550;-65
2021/09/29 05:13:32;;;;;;;9.63;5.70;;;;;;;14.85;67.00;96935.56;5092118;28;20443;-66
2021/09/29 05:15:58;;;;;;;5.40;4.87;;;;;;;14.87;66.66;96935.38;5093990;28;20883;-67
2021/09/29 05:18:24;;;;;;;9.30;4.90;;;;;;;15.40;65.11;96931.63;5093115;28;20517;-66
2021/09/29 05:20:51;;;;;;;7.07;5.20;;;;;;;14.93;66.63;96944.34;5106405;28;20428;-68
2021/09/29 05:23:16;;;;;;;8.13;5.57;;;;;;;15.38;65.14;96942.34;5112720;28;20230;-66
2021/09/29 05:25:42;;;;;;;11.30;5.53;;;;;;;14.81;67.03;96944.84;5102889;28;20434;-65
2021/09/29 05:28:12;;;;;;;7.27;5.40;;;;;;;15.09;65.99;96945.94;5092562;28;20300;-64
2021/09/29 05:30:37;;;;;;;10.37;5.73;;;;;;;15.25;65.28;96939.63;5094456;28;20196;-67
2021/09/29 05:33:03;;;;;;;7.67;5.77;;;;;;;15.08;66.04;96942.50;5096557;28;20923;-68
2021/09/29 05:35:28;;;;;;;7.47;5.63;;;;;;;15.29;65.09;96949.63;5103527;28;20218;-69
2021/09/29 05:37:54;;;;;;;8.17;5.87;;;;;;;15.34;64.94;96941.13;5113726;28;20594;-67
2021/09/29 05:40:20;;;;;;;11.13;6.20;;;;;;;15.39;64.72;96946.63;5114915;28;20173;-67
2021/09/29 05:42:45;;;;;;;9.27;5.07;;;;;;;15.35;64.83;96940.13;5110395;28;20213;-66
2021/09/29 05:45:12;;;;;;;8.33;5.60;;;;;;;15.32;64.97;96951.03;5094259;28;20193;-66
2021/09/29 05:47:38;;;;;;;12.23;5.77;;;;;;;15.39;64.92;96949.28;5092785;28;20777;-66
2021/09/29 05:50:04;;;;;;;10.73;5.00;;;;;;;15.35;64.54;96950.69;5096042;28;20420;-65
2021/09/29 05:52:30;;;;;;;6.93;5.87;;;;;;;15.46;64.53;96955.44;5096866;28;20186;-65
2021/09/29 05:54:55;;;;;;;8.10;5.90;;;;;;;15.42;64.47;96951.53;5093953;28;20589;-63
2021/09/29 05:57:21;;;;;;;9.00;5.27;;;;;;;15.39;64.66;96959.84;5093453;28;20656;-65
2021/09/29 05:59:47;;;;;;;8.20;5.40;;;;;;;15.42;64.33;96964.75;5093800;28;20213;-65
2021/09/29 06:02:12;;;;;;;8.83;5.80;;;;;;;15.57;64.13;96967.31;5093380;28;20214;-65
2021/09/29 06:04:40;;;;;;;5.77;5.00;;;;;;;15.42;64.54;96967.38;5092992;28;20193;-64
2021/09/29 06:07:08;;;;;;;14.73;7.10;;;;;;;15.73;63.24;96966.25;5093228;28;20697;-69
2021/09/29 06:09:34;;;;;;;10.37;5.80;;;;;;;15.95;62.57;96968.88;5093163;28;20455;-68
2021/09/29 06:11:59;;;;;;;10.60;5.70;;;;;;;16.17;61.58;96967.00;5092936;28;20428;-67
2021/09/29 06:14:25;;;;;;;6.17;4.63;;;;;;;16.35;61.21;96965.66;5092942;28;20504;-67
2021/09/29 06:16:58;;;;;;;5.90;4.50;;;;;;;16.34;60.99;96967.50;5092936;28;20527;-66
2021/09/29 06:19:23;;;;;;;20.90;4.70;;;;;;;16.45;60.52;96973.25;5091555;28;20181;-64
2021/09/29 06:21:49;;;;;;;12.37;4.70;;;;;;;16.67;60.11;96972.13;5092272;28;21095;-66
2021/09/29 06:24:14;;;;;;;6.17;4.80;;;;;;;16.61;59.70;96967.63;5092776;28;20196;-66
2021/09/29 06:26:40;;;;;;;5.67;4.37;;;;;;;16.78;59.39;96970.75;5092677;28;20273;-67
2021/09/29 06:29:06;;;;;;;7.80;4.87;;;;;;;17.04;58.67;96979.84;5091247;28;20186;-67
2021/09/29 06:31:32;;;;;;;12.03;4.73;;;;;;;17.12;58.36;96976.19;5092323;28;20609;-68
2021/09/29 06:33:57;;;;;;;5.73;4.80;;;;;;;17.17;58.27;96981.69;5092261;28;20233;-66
2021/09/29 06:36:23;;;;;;;9.10;4.30;;;;;;;17.18;58.38;96983.31;5093474;28;20995;-66
2021/09/29 06:38:49;;;;;;;5.43;3.63;;;;;;;17.50;57.85;96980.97;5090024;28;20204;-68
2021/09/29 06:41:14;;;;;;;9.93;4.20;;;;;;;17.75;57.36;96990.97;5091662;28;20553;-65
2021/09/29 06:43:40;;;;;;;7.07;3.97;;;;;;;16.99;59.16;96983.09;5091422;28;20198;-67
2021/09/29 06:46:05;;;;;;;6.50;4.20;;;;;;;17.60;56.60;96989.31;5091983;28;20185;-66
2021/09/29 06:48:31;;;;;;;8.87;3.90;;;;;;;16.39;60.35;96991.50;5092312;28;20670;-66
2021/09/29 06:50:56;;;;;;;9.60;4.50;;;;;;;16.76;59.09;96990.50;5092549;28;20186;-66
2021/09/29 06:53:23;;;;;;;16.33;4.50;;;;;;;17.32;57.33;96987.66;5091941;28;20235;-67
2021/09/29 06:55:49;;;;;;;8.50;3.70;;;;;;;18.54;54.21;96976.00;5092155;28;20237;-67
2021/09/29 06:58:18;;;;;;;8.83;3.63;;;;;;;19.40;51.25;96982.97;5088367;28;20474;-67
2021/09/29 07:00:44;;;;;;;3.90;3.40;;;;;;;19.47;50.26;96979.25;5091507;28;20424;-67
2021/09/29 07:03:10;;;;;;;9.53;3.40;;;;;;;19.35;50.20;96975.66;5091972;28;20420;-65
2021/09/29 07:05:35;;;;;;;4.90;3.20;;;;;;;18.51;52.46;96976.44;5090581;28;20256;-66
2021/09/29 07:08:01;;;;;;;8.20;3.90;;;;;;;18.01;54.05;96978.75;5091943;28;20519;-66
2021/09/29 07:10:28;;;;;;;6.20;3.70;;;;;;;17.98;54.08;96984.47;5088645;28;20192;-67
2021/09/29 07:12:55;;;;;;;5.57;3.40;;;;;;;17.78;54.48;96982.59;5090672;28;20174;-67
2021/09/29 07:15:21;;;;;;;5.63;3.13;;;;;;;17.78;54.07;96983.41;5090777;28;20451;-68
2021/09/29 07:17:46;;;;;;;6.20;4.10;;;;;;;17.89;54.06;96987.31;5089593;28;20424;-68
2021/09/29 07:20:12;;;;;;;3.30;2.20;;;;;;;17.48;54.51;96988.28;5091784;28;20182;-66
2021/09/29 07:22:39;;;;;;;6.30;2.90;;;;;;;17.63;54.65;96993.41;5090628;28;20178;-65
2021/09/29 07:25:05;;;;;;;6.23;3.33;;;;;;;17.15;56.23;96984.56;5091509;28;21030;-65
2021/09/29 07:27:31;;;;;;;10.00;3.03;;;;;;;16.83;57.35;96991.34;5091590;28;20419;-67
2021/09/29 07:29:57;;;;;;;4.77;2.57;;;;;;;17.27;55.63;96992.72;5089691;28;21207;-66
2021/09/29 07:32:24;;;;;;;5.30;2.20;;;;;;;16.19;58.73;96991.38;5091578;28;20420;-66
2021/09/29 07:34:50;;;;;;;4.60;2.37;;;;;;;16.44;58.62;97001.53;5089566;28;20619;-67
2021/09/29 07:37:17;;;;;;;11.47;2.73;;;;;;;16.88;57.06;96991.56;5090176;28;20847;-66
2021/09/29 07:39:45;;;;;;;7.53;2.43;;;;;;;17.16;56.38;96995.94;5073779;28;20530;-67
2021/09/29 07:42:10;;;;;;;3.77;2.27;;;;;;;17.63;55.03;97002.19;5091730;28;20898;-66
2021/09/29 07:44:36;;;;;;;6.00;2.30;;;;;;;17.79;54.81;97005.44;5091399;28;20485;-66
2021/09/29 07:47:02;;;;;;;3.30;2.60;;;;;;;18.08;54.03;96998.13;5090247;28;20174;-66
2021/09/29 07:49:27;;;;;;;3.40;1.87;;;;;;;17.81;54.47;97000.75;5091851;28;20182;-66
2021/09/29 07:51:53;;;;;;;3.43;1.80;;;;;;;18.22;53.81;96996.25;5088927;28;20199;-66
2021/09/29 07:54:19;;;;;;;2.90;1.90;;;;;;;17.98;53.46;96995.06;5088870;28;20710;-66
2021/09/29 07:56:44;;;;;;;4.70;2.10;;;;;;;18.19;53.09;96994.84;5091007;28;20420;-65
2021/09/29 07:59:10;;;;;;;6.23;2.50;;;;;;;18.18;52.82;96993.22;5088748;28;20266;-65
2021/09/29 08:01:36;;;;;;;4.67;2.23;;;;;;;18.36;52.09;96994.41;5091674;28;20181;-66
2021/09/29 08:04:01;;;;;;;4.30;2.00;;;;;;;18.88;51.28;96987.31;5094228;28;20733;-67
2021/09/29 08:06:28;;;;;;;3.30;1.87;;;;;;;18.82;51.31;96990.81;5091279;28;20197;-65
2021/09/29 08:08:54;;;;;;;4.73;1.80;;;;;;;18.91;50.99;96979.94;5090176;28;20185;-66
2021/09/29 08:11:19;;;;;;;5.10;1.70;;;;;;;19.23;49.80;96982.69;5089956;28;20419;-66
2021/09/29 08:13:45;;;;;;;2.43;1.70;;;;;;;19.03;49.56;96989.72;5091458;28;20213;-65
2021/09/29 08:16:10;;;;;;;3.43;1.67;;;;;;;18.08;51.97;96983.00;5090709;28;20287;-65
2021/09/29 08:18:36;;;;;;;3.83;1.83;;;;;;;19.04;49.53;96990.53;5090797;28;20182;-69
2021/09/29 08:21:05;;;;;;;2.60;1.70;;;;;;;19.09;49.52;96982.75;5092228;28;20180;-65
2021/09/29 08:23:37;;;;;;;2.63;1.83;;;;;;;18.82;50.00;96980.19;5098318;28;20213;-66
2021/09/29 08:26:33;;;;;;;8.67;2.50;;;;;;;19.13;49.49;96983.97;5093534;28;20792;-67
2021/09/29 08:32:04;;;;;;;2.87;1.97;;;;;;;19.16;49.10;96983.53;5095016;28;20419;-66
2021/09/29 08:39:33;;;;;;;9.50;1.90;;;;;;;19.30;48.61;96988.75;5094085;28;20415;-68
2021/09/29 09:16:58;;;;;;;5.67;2.17;;;;;;;20.51;45.48;96991.28;5051236;28;20425;-65
2021/09/29 09:19:30;;;;;;;3.27;1.97;;;;;;;20.65;44.92;96978.66;5050702;28;20459;-67
2021/09/29 09:22:00;;;;;;;4.10;1.67;;;;;;;20.70;45.54;96978.78;5058757;28;20421;-67
2021/09/29 09:24:30;;;;;;;3.63;1.50;;;;;;;20.62;45.00;96981.75;5050666;28;20620;-67
2021/09/29 09:27:07;;;;;;;4.40;1.50;;;;;;;21.12;43.42;96982.59;5032680;28;20431;-67
2021/09/29 09:29:51;;;;;;;6.63;1.67;;;;;;;21.19;43.24;96975.31;5068121;28;20423;-66
2021/09/29 09:32:19;;;;;;;3.40;1.13;;;;;;;20.84;43.50;96970.66;5093043;28;21003;-66
2021/09/29 09:34:45;;;;;;;3.70;1.57;;;;;;;20.45;44.77;96967.38;5093841;28;20456;-67
2021/09/29 09:37:13;;;;;;;4.90;1.47;;;;;;;20.21;45.75;96972.56;5094217;28;20480;-66
2021/09/29 09:39:40;;;;;;;3.17;1.37;;;;;;;20.38;45.85;96972.78;5103802;28;20237;-67
2021/09/29 09:42:08;;;;;;;5.63;2.00;;;;;;;19.90;46.46;96976.94;5102424;28;20879;-66
2021/09/29 09:44:35;;;;;;;8.60;1.80;;;;;;;20.55;44.43;96967.69;5103056;28;20439;-67
2021/09/29 09:47:07;;;;;;;5.77;2.10;;;;;;;20.15;45.36;96968.13;5101734;28;20917;-69
2021/09/29 09:49:53;;;;;;;4.50;1.50;;;;;;;20.29;45.51;96966.94;5102788;28;20434;-66
2021/09/29 09:52:33;;;;;;;2.57;1.50;;;;;;;20.04;45.45;96965.13;5089433;28;20443;-65
2021/09/29 09:55:07;;;;;;;2.83;1.73;;;;;;;20.33;45.01;96967.34;5093250;28;20447;-65
2021/09/29 09:57:34;;;;;;;3.40;1.70;;;;;;;20.38;45.25;96965.63;5090275;28;20423;-67
2021/09/29 10:00:00;;;;;;;9.20;5.83;;;;;;;20.25;44.87;96971.88;5089466;28;20451;-67
2021/09/29 10:02:43;;;;;;;2.67;1.43;;;;;;;20.64;43.10;96960.22;5092870;28;20575;-67
2021/09/29 10:05:11;;;;;;;2.17;1.10;;;;;;;20.41;42.39;96961.72;5091833;28;20459;-66
2021/09/29 10:07:36;;;;;;;3.23;1.20;;;;;;;19.65;43.14;96969.75;5091502;28;20594;-66
2021/09/29 10:10:22;;;;;;;9.83;1.50;;;;;;;19.32;43.51;96965.44;5093180;28;20454;-67
2021/09/29 10:27:35;;;;;;;4.30;1.43;;;;;;;20.31;41.49;96940.13;5093021;28;20436;-65
2021/09/29 10:30:07;;;;;;;4.60;1.30;;;;;;;20.58;41.26;96929.19;5091748;28;20416;-68
2021/09/29 10:32:42;;;;;;;7.37;1.30;;;;;;;20.79;40.79;96936.72;5097459;28;20508;-68
2021/09/29 10:40:42;;;;;;;11.57;2.93;;;;;;;20.60;41.87;96935.91;5096039;28;20404;-66
2021/09/29 11:03:17;;;;;;;6.40;1.37;;;;;;;20.15;42.67;96933.53;5089901;28;20424;-66
2021/09/29 11:30:03;;;;;;;7.13;1.40;;;;;;;21.57;40.61;96904.84;5087949;28;20435;-65
2021/09/29 12:10:25;;;;;;;6.17;1.10;;;;;;;21.88;38.56;96886.09;5090982;28;20978;-68
2021/09/29 12:12:52;;;;;;;6.00;0.90;;;;;;;21.21;39.58;96882.66;5089457;28;20510;-67
2021/09/29 12:15:18;;;;;;;3.40;0.90;;;;;;;21.57;38.95;96877.38;5089523;28;20455;-66
2021/09/29 12:17:49;;;;;;;2.50;1.27;;;;;;;21.59;39.17;96880.66;5089453;28;20903;-66
2021/09/29 12:22:50;;;;;;;2.60;0.83;;;;;;;21.49;39.16;96881.22;5088789;28;20420;-66
2021/09/29 12:25:46;;;;;;;3.43;1.07;;;;;;;21.72;38.87;96879.63;5091050;28;20428;-67
2021/09/29 12:31:11;;;;;;;1.63;1.00;;;;;;;21.74;39.14;96875.66;5093177;28;20434;-65
2021/09/29 12:36:28;;;;;;;3.90;1.00;;;;;;;21.61;39.03;96859.94;5091861;28;20431;-69
2021/09/29 12:38:54;;;;;;;4.47;1.97;;;;;;;22.19;37.96;96868.91;5091059;28;20427;-69
2021/09/29 12:41:20;;;;;;;2.60;1.37;;;;;;;22.15;38.18;96877.63;5091648;28;20443;-68
2021/09/29 12:43:45;;;;;;;5.23;0.97;;;;;;;22.17;38.61;96876.34;5090897;28;20201;-67
2021/09/29 12:46:17;;;;;;;3.40;1.10;;;;;;;21.79;39.10;96861.66;5093480;28;20220;-69
2021/09/29 12:48:43;;;;;;;2.63;0.97;;;;;;;21.23;40.17;96875.25;5091147;28;20226;-70
2021/09/29 12:51:13;;;;;;;1.57;0.90;;;;;;;22.03;38.89;96872.31;5090310;28;20946;-69
2021/09/29 12:56:15;;;;;;;2.87;1.20;;;;;;;21.41;39.76;96868.22;5089767;28;20875;-68
2021/09/29 12:58:41;;;;;;;3.53;1.40;;;;;;;21.02;41.32;96880.09;5089854;28;20427;-69
2021/09/29 13:01:06;;;;;;;3.33;1.27;;;;;;;20.97;41.05;96884.47;5091189;28;20447;-69
2021/09/29 13:03:32;;;;;;;3.33;1.23;;;;;;;20.53;42.95;96887.28;5090445;28;20181;-69
2021/09/29 13:05:58;;;;;;;3.53;1.20;;;;;;;21.23;41.81;96890.44;5091642;28;20418;-72
2021/09/29 13:08:24;;;;;;;4.40;1.17;;;;;;;21.63;41.45;96879.97;5093576;28;20173;-69
2021/09/29 13:10:50;;;;;;;2.40;1.57;;;;;;;21.54;41.35;96888.50;5095102;28;20657;-68
2021/09/29 13:13:17;;;;;;;1.80;1.13;;;;;;;22.07;40.96;96892.94;5095019;28;20423;-69
2021/09/29 13:15:46;;;;;;;7.13;1.33;;;;;;;21.93;41.01;96891.56;5094780;28;20197;-67
2021/09/29 13:20:49;;;;;;;3.20;0.90;;;;;;;21.15;43.05;96904.91;5095499;28;20441;-66
2021/09/29 13:23:40;;;;;;;3.73;1.10;;;;;;;20.76;43.85;96915.06;5095166;28;20444;-66
2021/09/29 13:36:58;;;;;;;6.53;1.80;;;;;;;17.44;61.03;96997.66;5094864;28;20887;-68
2021/09/29 13:39:23;;;;;;;3.50;1.23;;;;;;;17.39;63.71;96994.81;5095307;28;20431;-67
2021/09/29 13:41:52;;;;;;;5.17;1.80;;;;;;;17.15;64.91;97005.72;5094295;28;20193;-66
2021/09/29 13:44:18;;;;;;;4.57;1.27;;;;;;;16.86;66.30;97002.34;5088701;28;20213;-67
2021/09/29 13:46:46;;;;;;;5.37;1.73;;;;;;;16.85;66.74;97011.28;5095984;28;20470;-69
2021/09/29 13:49:12;;;;;;;7.33;2.13;;;;;;;16.75;67.92;97002.91;5095893;28;20415;-67
2021/09/29 13:51:40;;;;;;;7.80;1.47;;;;;;;17.04;67.53;96998.38;5089402;28;20420;-66
2021/09/29 13:54:12;;;;;;;4.13;1.30;;;;;;;17.34;67.00;97009.44;5091454;28;20954;-66
2021/09/29 13:57:24;;;;;;;4.93;1.77;;;;;;;17.61;66.54;97008.66;5095575;28;20782;-67
2021/09/29 14:29:29;;;;;;;2.73;0.70;;;;;;;16.64;64.96;97067.75;5086010;28;20419;-66
2021/09/29 14:34:24;;;;;;;1.93;0.73;;;;;;;15.34;65.92;97083.69;5094190;28;20535;-67
2021/09/29 14:36:49;;;;;;;1.10;0.57;;;;;;;15.54;66.15;97088.38;5092224;28;20488;-66
2021/09/29 14:39:16;;;;;;;2.13;0.70;;;;;;;15.15;65.49;97077.97;5091029;28;20226;-67
2021/09/29 14:41:41;;;;;;;0.90;0.60;;;;;;;15.01;65.02;97099.91;5092821;28;20583;-67
2021/09/29 14:44:08;;;;;;;1.30;0.67;;;;;;;14.79;66.39;97083.22;5092622;28;20531;-68
2021/09/29 14:46:34;;;;;;;2.03;0.63;;;;;;;15.04;66.02;97094.28;5093672;28;20739;-67
2021/09/29 14:48:59;;;;;;;1.10;0.73;;;;;;;15.33;64.74;97100.53;5093324;28;20419;-67
2021/09/29 14:51:25;;;;;;;1.20;0.70;;;;;;;14.79;67.28;97097.19;5093063;28;20188;-67
2021/09/29 14:53:54;;;;;;;2.03;0.70;;;;;;;14.86;66.40;97113.97;5093779;28;20197;-67
2021/09/29 14:56:20;;;;;;;1.10;0.97;;;;;;;14.94;66.26;97115.66;5093247;28;20663;-67
2021/09/29 14:58:46;;;;;;;5.10;1.50;;;;;;;14.90;66.92;97123.13;5092638;28;20428;-66